Accueil
METAR-TAF:

METAR-TAF

Aéroports :

Aéroport de Cherbourg - Maupertus

Cherbourg, France

latitude: 49-39N, longitude: 001-28W, altitude: 138 m

Observation

Le bulletin a été fait il y a 16 minutes, à 19:30 UTC
Vent 3 kt de nord/nord-est
Température 10°C
Humidité 82%
Pression 1028 hPa
Visibilité 10 km ou plus
pas de nuages en-dessous de 1500 mètres et pas de cumulonimbus.

METAR: LFRC 191930Z AUTO 02003KT CAVOK 10/07 Q1028

Heure: 21:46 (19:46 UTC)

Prévision

Le bulletin a été fait il y a 5 heures et 46 minutes, à 14:00 UTC
Prévision valable du 19 à 15 UTC au 19 à 24 UTC
Vent 10 kt de nord/nord-est
Visibilité 10 km ou plus
Nuages fragmentés à une hauteur de 2000 ft
Evoluant progressivement
du 19 à 19 UTC au 19 à 21 UTC
Vent 5 kt de nord-est
Probabilité 30% :
Temporairement
du 19 à 22 UTC au 19 à 24 UTC
Visibilité: 3000 m
brume

TAF: LFRC 191400Z 1915/1924 03010KT 9999 BKN020 BECMG 1919/1921 05005KT PROB30 TEMPO 1922/1924 3000 BR

Observations et prévisions météorologiques de plus de 4000 aéroports (messages METAR et TAF).

Les stations disponibles sont représentées par des disques jaunes et rouges sur la carte.

Passer la souris dessus pour voir le nom de la station.

Cliquer dessus pour voir les observations et prévisions météorologiques.

Pour changer de carte: cliquez sur les boutons verts avec une croix noire pour zoomer, sur le bouton vert avec un tiret pour effectuer un zoom arrière, ou sur les flèches vertes pour les cartes adjacentes.


METAR-TAF: